KZR132 UTDD-UAAA
Flight info
| Callsign | KZR132 |
|---|---|
| Flight time | N/A |
| Altitude | 35000 |
| Route | JD B350 VADER L135 LAKEL |
| Aircraft | A21N/M-SDE2E3FGIJ1RWYM3/LB2 |
Departure
| Time | 2026-04-30 14:09 |
|---|---|
| Airport | Dushanbe International Airport (UTDD) |
Arrival
| Time | N/A |
|---|---|
| Airport | Almaty International Airport (UAAA) |
| Time | Latitude | Longitude | Altitude | Speed | Heading |
|---|---|---|---|---|---|
| 2026-04-30 13:47 | 38.54776 | 68.81202 | 2600 ft | 0 kts | 1° |
| 2026-04-30 14:02 | 38.54754 | 68.81202 | 2600 ft | 4 kts | 0° |
| 2026-04-30 14:02 | 38.54729 | 68.81202 | 2600 ft | 2 kts | 0° |
| 2026-04-30 14:03 | 38.54706 | 68.81202 | 2600 ft | 4 kts | 354° |
| 2026-04-30 14:03 | 38.54686 | 68.81210 | 2600 ft | 4 kts | 296° |
| 2026-04-30 14:03 | 38.54684 | 68.81217 | 2600 ft | 0 kts | 271° |
| 2026-04-30 14:07 | 38.54684 | 68.81209 | 2600 ft | 3 kts | 271° |
| 2026-04-30 14:07 | 38.54684 | 68.81157 | 2601 ft | 9 kts | 271° |
| 2026-04-30 14:07 | 38.54685 | 68.81057 | 2602 ft | 14 kts | 269° |
| 2026-04-30 14:08 | 38.54684 | 68.80735 | 2606 ft | 21 kts | 270° |
| 2026-04-30 14:08 | 38.54574 | 68.80662 | 2607 ft | 22 kts | 179° |
| 2026-04-30 14:08 | 38.54366 | 68.80792 | 2606 ft | 29 kts | 88° |
| 2026-04-30 14:09 | 38.54372 | 68.81380 | 2599 ft | 101 kts | 91° |
| 2026-04-30 14:09 | 38.54367 | 68.82532 | 2579 ft | 152 kts | 90° |
| 2026-04-30 14:09 | 38.54330 | 68.85570 | 3338 ft | 173 kts | 90° |
| 2026-04-30 14:10 | 38.54319 | 68.87103 | 3880 ft | 179 kts | 89° |
| 2026-04-30 14:10 | 38.54318 | 68.88749 | 4308 ft | 193 kts | 89° |
| 2026-04-30 14:10 | 38.54312 | 68.90517 | 4788 ft | 206 kts | 91° |
| 2026-04-30 14:10 | 38.54309 | 68.92419 | 5272 ft | 221 kts | 90° |
| 2026-04-30 14:11 | 38.54306 | 68.94444 | 5791 ft | 235 kts | 90° |
| 2026-04-30 14:11 | 38.54303 | 68.96611 | 6200 ft | 254 kts | 90° |
| 2026-04-30 14:11 | 38.54301 | 68.98937 | 6595 ft | 274 kts | 90° |
| 2026-04-30 14:11 | 38.54299 | 69.01428 | 7168 ft | 286 kts | 90° |
| 2026-04-30 14:12 | 38.54294 | 69.03993 | 7927 ft | 290 kts | 90° |
| 2026-04-30 14:12 | 38.54286 | 69.06588 | 8663 ft | 294 kts | 90° |
| 2026-04-30 14:12 | 38.54279 | 69.09215 | 9407 ft | 297 kts | 90° |
| 2026-04-30 14:12 | 38.54275 | 69.10960 | 9868 ft | 298 kts | 90° |
| 2026-04-30 14:13 | 38.54274 | 69.13637 | 10444 ft | 309 kts | 89° |
| 2026-04-30 14:13 | 38.54290 | 69.16365 | 11310 ft | 303 kts | 89° |
| 2026-04-30 14:13 | 38.54304 | 69.19017 | 12319 ft | 293 kts | 89° |
| 2026-04-30 14:13 | 38.54321 | 69.21589 | 13322 ft | 285 kts | 90° |
| 2026-04-30 14:14 | 38.54340 | 69.24086 | 14148 ft | 281 kts | 89° |
| 2026-04-30 14:14 | 38.54356 | 69.26586 | 14835 ft | 283 kts | 90° |
| 2026-04-30 14:14 | 38.54407 | 69.29155 | 15273 ft | 297 kts | 86° |
| 2026-04-30 14:14 | 38.54841 | 69.31803 | 15531 ft | 315 kts | 68° |
| 2026-04-30 14:15 | 38.55999 | 69.34261 | 15788 ft | 332 kts | 52° |
| 2026-04-30 14:15 | 38.57491 | 69.36626 | 16044 ft | 351 kts | 50° |
| 2026-04-30 14:15 | 38.59091 | 69.39105 | 16290 ft | 369 kts | 50° |
| 2026-04-30 14:15 | 38.60749 | 69.41704 | 16531 ft | 386 kts | 51° |
| 2026-04-30 14:16 | 38.62438 | 69.44389 | 16902 ft | 397 kts | 51° |
| 2026-04-30 14:16 | 38.64168 | 69.47168 | 17473 ft | 401 kts | 52° |
| 2026-04-30 14:16 | 38.65911 | 69.49981 | 18077 ft | 405 kts | 51° |
| 2026-04-30 14:16 | 38.67673 | 69.52808 | 18672 ft | 408 kts | 51° |
| 2026-04-30 14:17 | 38.69452 | 69.55663 | 19250 ft | 412 kts | 51° |
| 2026-04-30 14:17 | 38.71243 | 69.58549 | 19791 ft | 416 kts | 52° |
| 2026-04-30 14:17 | 38.73056 | 69.61475 | 20324 ft | 420 kts | 51° |
| 2026-04-30 14:17 | 38.74882 | 69.64426 | 20839 ft | 424 kts | 52° |
| 2026-04-30 14:18 | 38.76719 | 69.67405 | 21356 ft | 428 kts | 52° |
| 2026-04-30 14:18 | 38.78575 | 69.70418 | 21848 ft | 432 kts | 52° |
| 2026-04-30 14:18 | 38.82294 | 69.76463 | 22830 ft | 438 kts | 52° |
| 2026-04-30 14:19 | 38.86101 | 69.82657 | 23757 ft | 445 kts | 52° |
| 2026-04-30 14:19 | 38.88029 | 69.85799 | 24195 ft | 449 kts | 52° |
| 2026-04-30 14:19 | 38.89971 | 69.88965 | 24626 ft | 452 kts | 52° |
| 2026-04-30 14:20 | 38.91922 | 69.92149 | 25069 ft | 455 kts | 52° |
| 2026-04-30 14:20 | 38.93882 | 69.95350 | 25482 ft | 458 kts | 52° |
| 2026-04-30 14:20 | 38.97815 | 70.01805 | 26277 ft | 463 kts | 52° |
| 2026-04-30 14:21 | 38.99808 | 70.05072 | 26664 ft | 465 kts | 52° |
| 2026-04-30 14:21 | 39.01809 | 70.08352 | 27031 ft | 468 kts | 52° |
| 2026-04-30 14:21 | 39.05826 | 70.15016 | 27775 ft | 473 kts | 52° |
| 2026-04-30 14:22 | 39.07845 | 70.18376 | 28120 ft | 476 kts | 52° |
| 2026-04-30 14:22 | 39.11931 | 70.25125 | 28862 ft | 477 kts | 52° |
| 2026-04-30 14:22 | 39.13975 | 70.28497 | 29281 ft | 477 kts | 51° |
| 2026-04-30 14:23 | 39.18067 | 70.35208 | 30065 ft | 476 kts | 51° |
| 2026-04-30 14:23 | 39.22152 | 70.41945 | 30764 ft | 476 kts | 51° |
| 2026-04-30 14:24 | 39.26232 | 70.48618 | 31408 ft | 476 kts | 50° |
| 2026-04-30 14:24 | 39.28321 | 70.51941 | 31721 ft | 476 kts | 50° |
| 2026-04-30 14:25 | 39.32500 | 70.58596 | 32299 ft | 476 kts | 50° |
| 2026-04-30 14:25 | 39.36679 | 70.65243 | 32846 ft | 477 kts | 50° |
| 2026-04-30 14:26 | 39.40857 | 70.71907 | 33426 ft | 475 kts | 50° |
| 2026-04-30 14:26 | 39.42934 | 70.75231 | 33683 ft | 475 kts | 50° |
| 2026-04-30 14:26 | 39.47060 | 70.81849 | 34115 ft | 475 kts | 50° |
| 2026-04-30 14:27 | 39.49125 | 70.85181 | 34353 ft | 475 kts | 50° |
| 2026-04-30 14:27 | 39.51196 | 70.88525 | 34586 ft | 475 kts | 50° |
| 2026-04-30 14:27 | 39.53257 | 70.91863 | 34814 ft | 475 kts | 49° |
| 2026-04-30 14:28 | 39.57396 | 70.98567 | 34952 ft | 474 kts | 49° |
| 2026-04-30 14:28 | 39.59450 | 71.01898 | 34946 ft | 473 kts | 49° |
| 2026-04-30 14:28 | 39.63533 | 71.08524 | 34934 ft | 473 kts | 49° |
| 2026-04-30 14:29 | 39.71725 | 71.21865 | 34928 ft | 471 kts | 50° |
| 2026-04-30 14:31 | 39.81870 | 71.38474 | 34930 ft | 469 kts | 50° |
| 2026-04-30 14:31 | 39.87915 | 71.48460 | 34938 ft | 467 kts | 50° |
| 2026-04-30 14:32 | 39.93972 | 71.58435 | 34930 ft | 467 kts | 50° |
| 2026-04-30 14:33 | 39.97997 | 71.65079 | 34928 ft | 466 kts | 50° |
| 2026-04-30 14:33 | 40.04004 | 71.75019 | 34931 ft | 466 kts | 50° |
| 2026-04-30 14:34 | 40.08006 | 71.81685 | 34929 ft | 466 kts | 50° |
| 2026-04-30 14:34 | 40.12006 | 71.88361 | 34925 ft | 466 kts | 50° |
| 2026-04-30 14:35 | 40.17959 | 71.98319 | 34930 ft | 465 kts | 51° |
| 2026-04-30 14:36 | 40.21978 | 72.04987 | 34929 ft | 465 kts | 50° |
| 2026-04-30 14:36 | 40.25897 | 72.11750 | 34931 ft | 466 kts | 54° |
| 2026-04-30 14:37 | 40.29493 | 72.18772 | 34928 ft | 466 kts | 55° |
| 2026-04-30 14:37 | 40.33104 | 72.25836 | 34925 ft | 466 kts | 55° |
| 2026-04-30 14:38 | 40.36708 | 72.32904 | 34931 ft | 466 kts | 55° |
| 2026-04-30 14:38 | 40.40311 | 72.39990 | 34939 ft | 466 kts | 55° |
| 2026-04-30 14:39 | 40.43907 | 72.47080 | 34947 ft | 466 kts | 55° |
| 2026-04-30 14:39 | 40.47502 | 72.54172 | 34955 ft | 466 kts | 55° |
| 2026-04-30 14:40 | 40.52881 | 72.64824 | 34956 ft | 466 kts | 55° |
| 2026-04-30 14:40 | 40.56459 | 72.71938 | 34959 ft | 466 kts | 55° |
| 2026-04-30 14:41 | 40.60028 | 72.79025 | 34963 ft | 467 kts | 55° |
| 2026-04-30 14:41 | 40.63962 | 72.85836 | 34958 ft | 466 kts | 50° |
| 2026-04-30 14:42 | 40.68007 | 72.92532 | 34960 ft | 466 kts | 50° |
| 2026-04-30 14:42 | 40.72005 | 72.99208 | 34960 ft | 467 kts | 50° |
| 2026-04-30 14:43 | 40.76037 | 73.05948 | 34963 ft | 467 kts | 50° |
| 2026-04-30 14:43 | 40.80044 | 73.12681 | 34955 ft | 466 kts | 50° |
| 2026-04-30 14:44 | 40.84060 | 73.19417 | 34955 ft | 467 kts | 50° |
| 2026-04-30 14:44 | 40.88076 | 73.26182 | 34959 ft | 468 kts | 50° |
| 2026-04-30 14:45 | 40.92083 | 73.32954 | 34954 ft | 467 kts | 51° |
| 2026-04-30 14:45 | 40.96047 | 73.39717 | 34954 ft | 467 kts | 51° |
| 2026-04-30 14:46 | 41.00049 | 73.46504 | 34946 ft | 467 kts | 51° |
| 2026-04-30 14:46 | 41.03385 | 73.52209 | 34955 ft | 467 kts | 51° |
| 2026-04-30 14:47 | 41.08015 | 73.60111 | 34959 ft | 467 kts | 50° |
| 2026-04-30 14:47 | 41.11983 | 73.66898 | 34950 ft | 465 kts | 51° |
| 2026-04-30 14:48 | 41.15970 | 73.73684 | 34957 ft | 466 kts | 50° |
| 2026-04-30 14:48 | 41.19958 | 73.80482 | 34956 ft | 466 kts | 51° |
| 2026-04-30 14:49 | 41.23928 | 73.87286 | 34960 ft | 468 kts | 50° |
| 2026-04-30 14:49 | 41.27907 | 73.94136 | 34961 ft | 468 kts | 51° |
| 2026-04-30 14:50 | 41.33775 | 74.04515 | 34945 ft | 468 kts | 52° |
| 2026-04-30 14:51 | 41.39439 | 74.15010 | 34936 ft | 466 kts | 53° |
| 2026-04-30 14:52 | 41.45123 | 74.25527 | 34939 ft | 466 kts | 53° |
| 2026-04-30 14:52 | 41.50798 | 74.36078 | 34936 ft | 466 kts | 53° |
| 2026-04-30 14:53 | 41.56426 | 74.46633 | 34931 ft | 467 kts | 53° |
| 2026-04-30 14:54 | 41.63989 | 74.60749 | 34957 ft | 466 kts | 53° |
| 2026-04-30 14:55 | 41.69616 | 74.71328 | 34971 ft | 467 kts | 53° |
| 2026-04-30 14:56 | 41.77120 | 74.85514 | 34983 ft | 467 kts | 53° |
| 2026-04-30 14:57 | 41.82748 | 74.96173 | 34980 ft | 466 kts | 53° |
| 2026-04-30 14:58 | 41.89590 | 75.09189 | 34986 ft | 466 kts | 53° |
| 2026-04-30 14:58 | 41.95174 | 75.19848 | 34987 ft | 465 kts | 53° |
| 2026-04-30 15:00 | 42.04427 | 75.37596 | 34998 ft | 463 kts | 53° |
| 2026-04-30 15:01 | 42.11789 | 75.51817 | 35005 ft | 463 kts | 53° |
| 2026-04-30 15:01 | 42.17259 | 75.62507 | 35016 ft | 463 kts | 53° |
| 2026-04-30 15:02 | 42.20957 | 75.69693 | 35031 ft | 463 kts | 53° |
| 2026-04-30 15:03 | 42.30099 | 75.87543 | 35044 ft | 463 kts | 53° |
| 2026-04-30 15:04 | 42.39243 | 76.05451 | 35066 ft | 463 kts | 53° |
| 2026-04-30 15:05 | 42.45384 | 76.15370 | 35089 ft | 455 kts | 34° |
| 2026-04-30 15:06 | 42.50447 | 76.20413 | 35085 ft | 454 kts | 32° |
| 2026-04-30 15:07 | 42.60656 | 76.30528 | 35098 ft | 454 kts | 33° |
| 2026-04-30 15:08 | 42.70791 | 76.40732 | 34669 ft | 452 kts | 33° |
| 2026-04-30 15:08 | 42.78414 | 76.48426 | 33859 ft | 455 kts | 33° |
| 2026-04-30 15:09 | 42.83507 | 76.53569 | 32848 ft | 454 kts | 33° |
| 2026-04-30 15:09 | 42.88598 | 76.58690 | 31336 ft | 456 kts | 33° |
| 2026-04-30 15:10 | 42.93659 | 76.63813 | 29889 ft | 454 kts | 33° |
| 2026-04-30 15:11 | 43.03766 | 76.74057 | 27108 ft | 450 kts | 34° |
| 2026-04-30 15:11 | 43.08737 | 76.79123 | 25713 ft | 442 kts | 34° |
| 2026-04-30 15:12 | 43.16048 | 76.86581 | 23634 ft | 429 kts | 34° |
| 2026-04-30 15:13 | 43.20775 | 76.91413 | 22323 ft | 423 kts | 36° |
| 2026-04-30 15:14 | 43.30193 | 77.00270 | 19726 ft | 393 kts | 17° |
| 2026-04-30 15:14 | 43.37984 | 76.99342 | 18206 ft | 376 kts | 345° |
| 2026-04-30 15:16 | 43.46778 | 76.88642 | 16035 ft | 331 kts | 278° |
| 2026-04-30 15:17 | 43.43953 | 76.77998 | 14505 ft | 290 kts | 218° |
| 2026-04-30 15:18 | 43.35088 | 76.74844 | 12167 ft | 255 kts | 188° |
| 2026-04-30 15:19 | 43.30012 | 76.74700 | 10448 ft | 244 kts | 149° |